sensor_id;sensor_type;location;lat;lon;timestamp;P1;durP1;ratioP1;P2;durP2;ratioP2
8478;SDS011;4276;49.354;6.804;2022-09-16T00:00:43;4.72;;;4.32;;
8478;SDS011;4276;49.354;6.804;2022-09-16T00:03:11;6.05;;;4.90;;
8478;SDS011;4276;49.354;6.804;2022-09-16T00:05:41;6.38;;;4.95;;
8478;SDS011;4276;49.354;6.804;2022-09-16T00:08:09;5.13;;;4.30;;
8478;SDS011;4276;49.354;6.804;2022-09-16T00:10:39;5.40;;;4.90;;
8478;SDS011;4276;49.354;6.804;2022-09-16T00:13:06;5.05;;;4.65;;
8478;SDS011;4276;49.354;6.804;2022-09-16T00:15:32;4.82;;;4.43;;
8478;SDS011;4276;49.354;6.804;2022-09-16T00:17:59;6.10;;;4.72;;
8478;SDS011;4276;49.354;6.804;2022-09-16T00:20:25;5.88;;;4.63;;
8478;SDS011;4276;49.354;6.804;2022-09-16T00:22:52;7.20;;;4.90;;
8478;SDS011;4276;49.354;6.804;2022-09-16T00:25:19;7.35;;;5.30;;
8478;SDS011;4276;49.354;6.804;2022-09-16T00:27:46;5.65;;;5.15;;
8478;SDS011;4276;49.354;6.804;2022-09-16T00:30:14;5.43;;;4.90;;
8478;SDS011;4276;49.354;6.804;2022-09-16T00:32:41;5.47;;;4.88;;
8478;SDS011;4276;49.354;6.804;2022-09-16T00:35:08;4.97;;;4.50;;
8478;SDS011;4276;49.354;6.804;2022-09-16T00:37:35;5.00;;;4.60;;
8478;SDS011;4276;49.354;6.804;2022-09-16T00:40:01;7.15;;;5.05;;
8478;SDS011;4276;49.354;6.804;2022-09-16T00:42:39;5.22;;;4.78;;
8478;SDS011;4276;49.354;6.804;2022-09-16T00:45:13;6.00;;;4.47;;
8478;SDS011;4276;49.354;6.804;2022-09-16T00:47:49;5.22;;;4.50;;
8478;SDS011;4276;49.354;6.804;2022-09-16T00:52:48;4.80;;;4.43;;
8478;SDS011;4276;49.354;6.804;2022-09-16T00:55:17;6.43;;;4.30;;
8478;SDS011;4276;49.354;6.804;2022-09-16T00:57:46;4.90;;;4.38;;
8478;SDS011;4276;49.354;6.804;2022-09-16T01:00:14;6.30;;;4.00;;
8478;SDS011;4276;49.354;6.804;2022-09-16T01:02:41;4.50;;;4.10;;
8478;SDS011;4276;49.354;6.804;2022-09-16T01:05:11;5.18;;;4.10;;
8478;SDS011;4276;49.354;6.804;2022-09-16T01:10:06;4.63;;;4.22;;
8478;SDS011;4276;49.354;6.804;2022-09-16T01:12:34;5.20;;;4.50;;
8478;SDS011;4276;49.354;6.804;2022-09-16T01:15:02;6.63;;;4.18;;
8478;SDS011;4276;49.354;6.804;2022-09-16T01:25:47;3.90;;;3.53;;
8478;SDS011;4276;49.354;6.804;2022-09-16T01:29:00;3.83;;;3.53;;
8478;SDS011;4276;49.354;6.804;2022-09-16T01:45:15;3.83;;;3.35;;
8478;SDS011;4276;49.354;6.804;2022-09-16T01:53:26;4.22;;;3.80;;
8478;SDS011;4276;49.354;6.804;2022-09-16T01:58:36;3.88;;;3.40;;
8478;SDS011;4276;49.354;6.804;2022-09-16T02:01:09;5.95;;;3.50;;
8478;SDS011;4276;49.354;6.804;2022-09-16T02:03:42;4.07;;;3.28;;
8478;SDS011;4276;49.354;6.804;2022-09-16T02:06:14;3.85;;;3.53;;
8478;SDS011;4276;49.354;6.804;2022-09-16T02:08:46;4.80;;;3.30;;
8478;SDS011;4276;49.354;6.804;2022-09-16T02:11:19;3.58;;;3.10;;
8478;SDS011;4276;49.354;6.804;2022-09-16T02:13:47;3.97;;;2.83;;
8478;SDS011;4276;49.354;6.804;2022-09-16T02:16:22;3.20;;;2.72;;
8478;SDS011;4276;49.354;6.804;2022-09-16T02:18:55;4.18;;;2.85;;
8478;SDS011;4276;49.354;6.804;2022-09-16T02:21:28;4.43;;;2.95;;
8478;SDS011;4276;49.354;6.804;2022-09-16T02:23:57;5.97;;;3.08;;
8478;SDS011;4276;49.354;6.804;2022-09-16T02:26:28;3.13;;;2.83;;
8478;SDS011;4276;49.354;6.804;2022-09-16T02:29:00;2.75;;;2.55;;
8478;SDS011;4276;49.354;6.804;2022-09-16T02:31:32;5.35;;;2.83;;
8478;SDS011;4276;49.354;6.804;2022-09-16T02:34:06;4.15;;;2.80;;
8478;SDS011;4276;49.354;6.804;2022-09-16T02:36:51;4.68;;;2.88;;
8478;SDS011;4276;49.354;6.804;2022-09-16T02:39:22;4.07;;;2.85;;
8478;SDS011;4276;49.354;6.804;2022-09-16T02:41:55;4.05;;;2.88;;
8478;SDS011;4276;49.354;6.804;2022-09-16T02:44:22;3.47;;;3.03;;
8478;SDS011;4276;49.354;6.804;2022-09-16T02:52:08;3.47;;;2.83;;
8478;SDS011;4276;49.354;6.804;2022-09-16T02:54:42;2.90;;;2.60;;
8478;SDS011;4276;49.354;6.804;2022-09-16T02:57:18;3.20;;;2.63;;
8478;SDS011;4276;49.354;6.804;2022-09-16T02:59:45;2.92;;;2.70;;
8478;SDS011;4276;49.354;6.804;2022-09-16T03:02:11;3.17;;;2.78;;
8478;SDS011;4276;49.354;6.804;2022-09-16T03:04:38;5.40;;;3.00;;
8478;SDS011;4276;49.354;6.804;2022-09-16T03:07:08;5.53;;;2.60;;
8478;SDS011;4276;49.354;6.804;2022-09-16T03:09:36;5.82;;;2.80;;
8478;SDS011;4276;49.354;6.804;2022-09-16T03:12:18;3.38;;;2.70;;
8478;SDS011;4276;49.354;6.804;2022-09-16T03:15:18;6.05;;;3.05;;
8478;SDS011;4276;49.354;6.804;2022-09-16T03:20:45;8.13;;;3.30;;
8478;SDS011;4276;49.354;6.804;2022-09-16T03:31:28;3.10;;;2.90;;
8478;SDS011;4276;49.354;6.804;2022-09-16T03:36:30;5.47;;;3.17;;
8478;SDS011;4276;49.354;6.804;2022-09-16T03:39:00;4.18;;;2.80;;
8478;SDS011;4276;49.354;6.804;2022-09-16T03:41:29;4.57;;;2.92;;
8478;SDS011;4276;49.354;6.804;2022-09-16T03:43:57;5.18;;;2.88;;
8478;SDS011;4276;49.354;6.804;2022-09-16T03:46:32;4.43;;;3.33;;
8478;SDS011;4276;49.354;6.804;2022-09-16T03:48:58;4.00;;;2.83;;
8478;SDS011;4276;49.354;6.804;2022-09-16T03:51:25;6.80;;;2.90;;
8478;SDS011;4276;49.354;6.804;2022-09-16T03:53:52;3.45;;;2.90;;
8478;SDS011;4276;49.354;6.804;2022-09-16T03:56:25;4.18;;;2.63;;
8478;SDS011;4276;49.354;6.804;2022-09-16T03:58:52;3.15;;;2.92;;
8478;SDS011;4276;49.354;6.804;2022-09-16T04:01:18;3.15;;;2.80;;
8478;SDS011;4276;49.354;6.804;2022-09-16T04:03:46;4.22;;;2.90;;
8478;SDS011;4276;49.354;6.804;2022-09-16T04:06:13;5.43;;;2.88;;
8478;SDS011;4276;49.354;6.804;2022-09-16T04:08:43;4.28;;;2.67;;
8478;SDS011;4276;49.354;6.804;2022-09-16T04:11:10;3.85;;;2.72;;
8478;SDS011;4276;49.354;6.804;2022-09-16T04:13:37;3.63;;;2.80;;
8478;SDS011;4276;49.354;6.804;2022-09-16T04:16:07;3.10;;;2.45;;
8478;SDS011;4276;49.354;6.804;2022-09-16T04:18:34;4.28;;;3.00;;
8478;SDS011;4276;49.354;6.804;2022-09-16T04:21:01;3.78;;;2.58;;
8478;SDS011;4276;49.354;6.804;2022-09-16T04:23:31;3.80;;;2.60;;
8478;SDS011;4276;49.354;6.804;2022-09-16T04:26:07;2.92;;;2.60;;
8478;SDS011;4276;49.354;6.804;2022-09-16T04:28:33;7.15;;;2.95;;
8478;SDS011;4276;49.354;6.804;2022-09-16T04:31:00;2.78;;;2.58;;
8478;SDS011;4276;49.354;6.804;2022-09-16T04:33:29;2.70;;;2.50;;
8478;SDS011;4276;49.354;6.804;2022-09-16T04:36:04;2.92;;;2.22;;
8478;SDS011;4276;49.354;6.804;2022-09-16T04:38:38;4.47;;;2.60;;
8478;SDS011;4276;49.354;6.804;2022-09-16T04:41:12;3.13;;;2.47;;
8478;SDS011;4276;49.354;6.804;2022-09-16T04:43:49;3.08;;;2.40;;
8478;SDS011;4276;49.354;6.804;2022-09-16T04:46:18;4.00;;;2.55;;
8478;SDS011;4276;49.354;6.804;2022-09-16T04:48:46;2.70;;;2.38;;
8478;SDS011;4276;49.354;6.804;2022-09-16T04:51:15;3.65;;;2.50;;
8478;SDS011;4276;49.354;6.804;2022-09-16T04:53:43;3.70;;;2.45;;
8478;SDS011;4276;49.354;6.804;2022-09-16T04:56:17;3.92;;;2.40;;
8478;SDS011;4276;49.354;6.804;2022-09-16T04:58:54;5.45;;;2.38;;
8478;SDS011;4276;49.354;6.804;2022-09-16T05:01:24;3.05;;;2.17;;
8478;SDS011;4276;49.354;6.804;2022-09-16T05:03:52;5.75;;;2.17;;
8478;SDS011;4276;49.354;6.804;2022-09-16T05:06:21;3.60;;;2.42;;
8478;SDS011;4276;49.354;6.804;2022-09-16T05:08:49;4.18;;;2.28;;
8478;SDS011;4276;49.354;6.804;2022-09-16T05:11:18;4.50;;;2.40;;
8478;SDS011;4276;49.354;6.804;2022-09-16T05:13:45;3.28;;;2.50;;
8478;SDS011;4276;49.354;6.804;2022-09-16T05:16:13;2.65;;;2.42;;
8478;SDS011;4276;49.354;6.804;2022-09-16T05:18:42;3.25;;;2.25;;
8478;SDS011;4276;49.354;6.804;2022-09-16T05:21:14;4.38;;;2.60;;
8478;SDS011;4276;49.354;6.804;2022-09-16T05:23:45;4.32;;;2.72;;
8478;SDS011;4276;49.354;6.804;2022-09-16T05:26:25;5.03;;;2.10;;
8478;SDS011;4276;49.354;6.804;2022-09-16T05:28:54;3.35;;;2.47;;
8478;SDS011;4276;49.354;6.804;2022-09-16T05:31:34;3.78;;;2.40;;
8478;SDS011;4276;49.354;6.804;2022-09-16T05:34:15;4.65;;;2.33;;
8478;SDS011;4276;49.354;6.804;2022-09-16T05:36:57;4.43;;;2.28;;
8478;SDS011;4276;49.354;6.804;2022-09-16T05:39:26;3.47;;;2.45;;
8478;SDS011;4276;49.354;6.804;2022-09-16T05:41:54;5.10;;;2.15;;
8478;SDS011;4276;49.354;6.804;2022-09-16T05:44:22;4.35;;;2.20;;
8478;SDS011;4276;49.354;6.804;2022-09-16T05:46:50;3.42;;;2.47;;
8478;SDS011;4276;49.354;6.804;2022-09-16T05:49:17;5.60;;;2.63;;
8478;SDS011;4276;49.354;6.804;2022-09-16T05:51:47;8.95;;;2.78;;
8478;SDS011;4276;49.354;6.804;2022-09-16T05:54:14;7.25;;;2.58;;
8478;SDS011;4276;49.354;6.804;2022-09-16T05:56:44;3.95;;;2.40;;
8478;SDS011;4276;49.354;6.804;2022-09-16T05:59:11;6.25;;;2.25;;
8478;SDS011;4276;49.354;6.804;2022-09-16T06:01:44;4.78;;;2.28;;
8478;SDS011;4276;49.354;6.804;2022-09-16T06:04:13;4.28;;;2.55;;
8478;SDS011;4276;49.354;6.804;2022-09-16T06:06:41;2.95;;;2.30;;
8478;SDS011;4276;49.354;6.804;2022-09-16T06:11:38;6.57;;;2.03;;
8478;SDS011;4276;49.354;6.804;2022-09-16T06:14:08;4.80;;;2.20;;
8478;SDS011;4276;49.354;6.804;2022-09-16T06:16:43;5.53;;;2.72;;
8478;SDS011;4276;49.354;6.804;2022-09-16T06:19:17;4.25;;;2.90;;
8478;SDS011;4276;49.354;6.804;2022-09-16T06:21:46;5.60;;;3.15;;
8478;SDS011;4276;49.354;6.804;2022-09-16T06:24:13;6.10;;;2.80;;
8478;SDS011;4276;49.354;6.804;2022-09-16T06:26:42;3.55;;;2.45;;
8478;SDS011;4276;49.354;6.804;2022-09-16T06:29:09;3.22;;;2.10;;
8478;SDS011;4276;49.354;6.804;2022-09-16T06:31:38;4.57;;;2.20;;
8478;SDS011;4276;49.354;6.804;2022-09-16T06:34:12;3.65;;;2.10;;
8478;SDS011;4276;49.354;6.804;2022-09-16T06:36:40;4.32;;;2.53;;
8478;SDS011;4276;49.354;6.804;2022-09-16T06:39:11;3.22;;;2.30;;
8478;SDS011;4276;49.354;6.804;2022-09-16T06:41:38;3.03;;;2.50;;
8478;SDS011;4276;49.354;6.804;2022-09-16T06:44:19;3.75;;;1.98;;
8478;SDS011;4276;49.354;6.804;2022-09-16T06:46:45;7.38;;;2.45;;
8478;SDS011;4276;49.354;6.804;2022-09-16T06:49:14;4.80;;;2.10;;
8478;SDS011;4276;49.354;6.804;2022-09-16T06:51:48;3.92;;;2.30;;
8478;SDS011;4276;49.354;6.804;2022-09-16T06:54:19;2.83;;;2.13;;
8478;SDS011;4276;49.354;6.804;2022-09-16T06:56:45;3.58;;;2.20;;
8478;SDS011;4276;49.354;6.804;2022-09-16T06:59:12;3.15;;;2.00;;
8478;SDS011;4276;49.354;6.804;2022-09-16T07:01:39;2.85;;;1.98;;
8478;SDS011;4276;49.354;6.804;2022-09-16T07:04:07;3.38;;;2.15;;
8478;SDS011;4276;49.354;6.804;2022-09-16T07:06:38;3.63;;;2.08;;
8478;SDS011;4276;49.354;6.804;2022-09-16T07:09:25;3.97;;;2.15;;
8478;SDS011;4276;49.354;6.804;2022-09-16T07:11:52;4.43;;;2.30;;
8478;SDS011;4276;49.354;6.804;2022-09-16T07:14:18;5.45;;;2.53;;
8478;SDS011;4276;49.354;6.804;2022-09-16T07:16:45;3.53;;;1.65;;
8478;SDS011;4276;49.354;6.804;2022-09-16T07:19:14;3.63;;;2.17;;
8478;SDS011;4276;49.354;6.804;2022-09-16T07:21:41;4.40;;;3.03;;
8478;SDS011;4276;49.354;6.804;2022-09-16T07:24:08;4.20;;;2.60;;
8478;SDS011;4276;49.354;6.804;2022-09-16T07:26:37;2.63;;;1.63;;
8478;SDS011;4276;49.354;6.804;2022-09-16T07:29:06;3.63;;;1.90;;
8478;SDS011;4276;49.354;6.804;2022-09-16T07:31:39;3.78;;;1.98;;
8478;SDS011;4276;49.354;6.804;2022-09-16T07:34:08;3.15;;;1.50;;
8478;SDS011;4276;49.354;6.804;2022-09-16T07:36:37;3.05;;;1.90;;
8478;SDS011;4276;49.354;6.804;2022-09-16T07:39:04;2.42;;;1.70;;
8478;SDS011;4276;49.354;6.804;2022-09-16T07:41:33;3.45;;;2.08;;
8478;SDS011;4276;49.354;6.804;2022-09-16T07:44:05;1.40;;;1.30;;
8478;SDS011;4276;49.354;6.804;2022-09-16T07:46:34;5.82;;;2.00;;
8478;SDS011;4276;49.354;6.804;2022-09-16T07:49:02;4.68;;;2.05;;
8478;SDS011;4276;49.354;6.804;2022-09-16T07:51:29;3.30;;;1.80;;
8478;SDS011;4276;49.354;6.804;2022-09-16T07:53:58;3.13;;;2.00;;
8478;SDS011;4276;49.354;6.804;2022-09-16T07:56:29;4.82;;;2.05;;
8478;SDS011;4276;49.354;6.804;2022-09-16T07:59:02;5.95;;;2.10;;
8478;SDS011;4276;49.354;6.804;2022-09-16T08:01:30;2.90;;;1.95;;
8478;SDS011;4276;49.354;6.804;2022-09-16T08:03:57;2.58;;;1.50;;
8478;SDS011;4276;49.354;6.804;2022-09-16T08:06:26;3.47;;;1.50;;
8478;SDS011;4276;49.354;6.804;2022-09-16T08:08:55;3.63;;;1.75;;
8478;SDS011;4276;49.354;6.804;2022-09-16T08:11:35;3.47;;;1.73;;
8478;SDS011;4276;49.354;6.804;2022-09-16T08:14:02;3.20;;;1.92;;
8478;SDS011;4276;49.354;6.804;2022-09-16T08:16:29;3.10;;;1.80;;
8478;SDS011;4276;49.354;6.804;2022-09-16T08:18:56;4.95;;;1.90;;
8478;SDS011;4276;49.354;6.804;2022-09-16T08:21:26;4.55;;;2.00;;
8478;SDS011;4276;49.354;6.804;2022-09-16T08:23:53;3.22;;;1.88;;
8478;SDS011;4276;49.354;6.804;2022-09-16T08:26:20;3.50;;;2.30;;
8478;SDS011;4276;49.354;6.804;2022-09-16T08:28:47;4.82;;;2.42;;
8478;SDS011;4276;49.354;6.804;2022-09-16T08:31:34;4.22;;;1.80;;
8478;SDS011;4276;49.354;6.804;2022-09-16T08:34:02;4.35;;;1.50;;
8478;SDS011;4276;49.354;6.804;2022-09-16T08:36:28;2.17;;;1.45;;
8478;SDS011;4276;49.354;6.804;2022-09-16T08:38:55;5.53;;;1.90;;
8478;SDS011;4276;49.354;6.804;2022-09-16T08:46:59;3.38;;;2.50;;
8478;SDS011;4276;49.354;6.804;2022-09-16T08:49:45;3.67;;;1.70;;
8478;SDS011;4276;49.354;6.804;2022-09-16T08:52:29;5.97;;;2.30;;
8478;SDS011;4276;49.354;6.804;2022-09-16T08:55:05;4.13;;;2.45;;
8478;SDS011;4276;49.354;6.804;2022-09-16T08:57:39;3.83;;;1.50;;
8478;SDS011;4276;49.354;6.804;2022-09-16T09:00:12;2.25;;;1.50;;
8478;SDS011;4276;49.354;6.804;2022-09-16T09:02:41;5.00;;;1.90;;
8478;SDS011;4276;49.354;6.804;2022-09-16T09:05:14;5.00;;;1.77;;
8478;SDS011;4276;49.354;6.804;2022-09-16T09:10:45;3.47;;;2.25;;
8478;SDS011;4276;49.354;6.804;2022-09-16T09:16:11;3.00;;;1.98;;
8478;SDS011;4276;49.354;6.804;2022-09-16T09:18:43;4.30;;;1.50;;
8478;SDS011;4276;49.354;6.804;2022-09-16T09:25:15;2.10;;;1.30;;
8478;SDS011;4276;49.354;6.804;2022-09-16T09:30:21;6.43;;;2.50;;
8478;SDS011;4276;49.354;6.804;2022-09-16T09:40:38;5.88;;;2.35;;
8478;SDS011;4276;49.354;6.804;2022-09-16T09:43:43;2.50;;;1.73;;
8478;SDS011;4276;49.354;6.804;2022-09-16T09:46:11;4.68;;;2.05;;
8478;SDS011;4276;49.354;6.804;2022-09-16T09:48:42;4.35;;;1.55;;
8478;SDS011;4276;49.354;6.804;2022-09-16T09:51:27;3.35;;;1.95;;
8478;SDS011;4276;49.354;6.804;2022-09-16T09:53:56;3.63;;;2.00;;
8478;SDS011;4276;49.354;6.804;2022-09-16T09:56:29;2.25;;;1.88;;
8478;SDS011;4276;49.354;6.804;2022-09-16T10:01:53;3.80;;;1.65;;
8478;SDS011;4276;49.354;6.804;2022-09-16T10:04:21;2.78;;;1.50;;
8478;SDS011;4276;49.354;6.804;2022-09-16T10:06:47;3.05;;;1.70;;
8478;SDS011;4276;49.354;6.804;2022-09-16T10:09:18;2.92;;;1.20;;
8478;SDS011;4276;49.354;6.804;2022-09-16T10:11:47;3.15;;;1.52;;
8478;SDS011;4276;49.354;6.804;2022-09-16T10:14:25;2.63;;;1.30;;
8478;SDS011;4276;49.354;6.804;2022-09-16T10:17:04;3.17;;;1.33;;
8478;SDS011;4276;49.354;6.804;2022-09-16T10:22:27;1.58;;;1.15;;
8478;SDS011;4276;49.354;6.804;2022-09-16T10:24:58;4.00;;;1.50;;
8478;SDS011;4276;49.354;6.804;2022-09-16T10:27:34;2.97;;;1.27;;
8478;SDS011;4276;49.354;6.804;2022-09-16T10:30:06;2.78;;;1.20;;
8478;SDS011;4276;49.354;6.804;2022-09-16T10:35:21;3.22;;;1.20;;
8478;SDS011;4276;49.354;6.804;2022-09-16T10:37:59;2.83;;;1.15;;
8478;SDS011;4276;49.354;6.804;2022-09-16T10:40:31;2.58;;;1.35;;
8478;SDS011;4276;49.354;6.804;2022-09-16T10:43:00;1.70;;;1.52;;
8478;SDS011;4276;49.354;6.804;2022-09-16T10:45:35;2.67;;;1.65;;
8478;SDS011;4276;49.354;6.804;2022-09-16T10:48:10;1.88;;;1.20;;
8478;SDS011;4276;49.354;6.804;2022-09-16T10:51:18;2.78;;;1.50;;
8478;SDS011;4276;49.354;6.804;2022-09-16T10:54:05;1.38;;;1.15;;
8478;SDS011;4276;49.354;6.804;2022-09-16T10:56:33;2.03;;;1.27;;
8478;SDS011;4276;49.354;6.804;2022-09-16T10:59:12;3.67;;;1.30;;
8478;SDS011;4276;49.354;6.804;2022-09-16T11:08:11;1.85;;;1.17;;
8478;SDS011;4276;49.354;6.804;2022-09-16T11:14:11;1.88;;;0.90;;
8478;SDS011;4276;49.354;6.804;2022-09-16T11:20:04;3.00;;;1.48;;
8478;SDS011;4276;49.354;6.804;2022-09-16T11:23:00;2.63;;;1.17;;
8478;SDS011;4276;49.354;6.804;2022-09-16T11:28:53;1.88;;;1.23;;
8478;SDS011;4276;49.354;6.804;2022-09-16T11:35:07;2.40;;;1.45;;
8478;SDS011;4276;49.354;6.804;2022-09-16T11:37:15;1.45;;;1.13;;
8478;SDS011;4276;49.354;6.804;2022-09-16T11:39:58;2.72;;;1.35;;
8478;SDS011;4276;49.354;6.804;2022-09-16T11:45:50;1.40;;;1.13;;
8478;SDS011;4276;49.354;6.804;2022-09-16T11:48:26;1.00;;;0.68;;
8478;SDS011;4276;49.354;6.804;2022-09-16T11:56:33;2.63;;;0.90;;
8478;SDS011;4276;49.354;6.804;2022-09-16T11:59:09;1.02;;;0.93;;
8478;SDS011;4276;49.354;6.804;2022-09-16T12:01:44;2.15;;;1.27;;
8478;SDS011;4276;49.354;6.804;2022-09-16T12:07:08;2.42;;;1.17;;
8478;SDS011;4276;49.354;6.804;2022-09-16T12:13:21;3.47;;;1.65;;
8478;SDS011;4276;49.354;6.804;2022-09-16T12:15:52;1.27;;;1.13;;
8478;SDS011;4276;49.354;6.804;2022-09-16T12:18:36;1.67;;;1.55;;
8478;SDS011;4276;49.354;6.804;2022-09-16T12:23:55;2.45;;;1.35;;
8478;SDS011;4276;49.354;6.804;2022-09-16T12:26:38;2.58;;;1.00;;
8478;SDS011;4276;49.354;6.804;2022-09-16T12:29:21;2.55;;;1.13;;
8478;SDS011;4276;49.354;6.804;2022-09-16T12:32:04;1.23;;;0.82;;
8478;SDS011;4276;49.354;6.804;2022-09-16T12:34:38;2.92;;;1.40;;
8478;SDS011;4276;49.354;6.804;2022-09-16T12:37:22;5.03;;;1.70;;
8478;SDS011;4276;49.354;6.804;2022-09-16T12:40:10;2.33;;;1.23;;
8478;SDS011;4276;49.354;6.804;2022-09-16T12:57:40;1.65;;;1.10;;
8478;SDS011;4276;49.354;6.804;2022-09-16T13:00:25;1.30;;;1.20;;
8478;SDS011;4276;49.354;6.804;2022-09-16T13:03:15;1.92;;;0.90;;
8478;SDS011;4276;49.354;6.804;2022-09-16T13:05:45;1.80;;;0.60;;
8478;SDS011;4276;49.354;6.804;2022-09-16T13:08:35;1.88;;;0.50;;
8478;SDS011;4276;49.354;6.804;2022-09-16T13:11:07;0.60;;;0.60;;
8478;SDS011;4276;49.354;6.804;2022-09-16T13:14:21;1.98;;;0.60;;
8478;SDS011;4276;49.354;6.804;2022-09-16T13:16:56;0.60;;;0.60;;
8478;SDS011;4276;49.354;6.804;2022-09-16T13:19:30;0.95;;;0.85;;
8478;SDS011;4276;49.354;6.804;2022-09-16T13:22:16;2.35;;;0.88;;
8478;SDS011;4276;49.354;6.804;2022-09-16T13:24:48;1.92;;;0.80;;
8478;SDS011;4276;49.354;6.804;2022-09-16T13:27:33;0.95;;;0.60;;
8478;SDS011;4276;49.354;6.804;2022-09-16T13:30:09;0.55;;;0.55;;
8478;SDS011;4276;49.354;6.804;2022-09-16T13:35:41;0.80;;;0.80;;
8478;SDS011;4276;49.354;6.804;2022-09-16T13:40:56;0.93;;;0.75;;
8478;SDS011;4276;49.354;6.804;2022-09-16T13:46:30;2.20;;;0.85;;
8478;SDS011;4276;49.354;6.804;2022-09-16T13:51:31;0.60;;;0.60;;
8478;SDS011;4276;49.354;6.804;2022-09-16T13:54:01;0.88;;;0.70;;
8478;SDS011;4276;49.354;6.804;2022-09-16T13:56:33;0.70;;;0.70;;
8478;SDS011;4276;49.354;6.804;2022-09-16T14:07:41;0.68;;;0.68;;
8478;SDS011;4276;49.354;6.804;2022-09-16T14:10:18;1.02;;;0.80;;
8478;SDS011;4276;49.354;6.804;2022-09-16T14:13:04;1.05;;;0.70;;
8478;SDS011;4276;49.354;6.804;2022-09-16T14:15:44;1.08;;;0.55;;
8478;SDS011;4276;49.354;6.804;2022-09-16T14:18:32;1.83;;;0.70;;
8478;SDS011;4276;49.354;6.804;2022-09-16T14:21:04;2.35;;;0.80;;
8478;SDS011;4276;49.354;6.804;2022-09-16T14:23:33;2.83;;;1.50;;
8478;SDS011;4276;49.354;6.804;2022-09-16T14:26:12;3.53;;;1.10;;
8478;SDS011;4276;49.354;6.804;2022-09-16T14:28:40;1.27;;;0.68;;
8478;SDS011;4276;49.354;6.804;2022-09-16T14:31:19;2.15;;;0.88;;
8478;SDS011;4276;49.354;6.804;2022-09-16T14:33:50;1.50;;;1.00;;
8478;SDS011;4276;49.354;6.804;2022-09-16T14:36:23;2.15;;;1.17;;
8478;SDS011;4276;49.354;6.804;2022-09-16T14:41:51;3.83;;;2.78;;
8478;SDS011;4276;49.354;6.804;2022-09-16T14:49:35;4.60;;;3.80;;
8478;SDS011;4276;49.354;6.804;2022-09-16T14:52:02;5.07;;;3.65;;
8478;SDS011;4276;49.354;6.804;2022-09-16T14:54:41;5.13;;;3.03;;
8478;SDS011;4276;49.354;6.804;2022-09-16T14:57:18;1.75;;;1.65;;
8478;SDS011;4276;49.354;6.804;2022-09-16T14:59:53;1.05;;;0.98;;
8478;SDS011;4276;49.354;6.804;2022-09-16T15:04:53;2.90;;;1.40;;
8478;SDS011;4276;49.354;6.804;2022-09-16T15:07:29;1.10;;;1.00;;
8478;SDS011;4276;49.354;6.804;2022-09-16T15:10:05;1.77;;;0.95;;
8478;SDS011;4276;49.354;6.804;2022-09-16T15:12:34;1.58;;;0.90;;
8478;SDS011;4276;49.354;6.804;2022-09-16T15:15:14;2.97;;;1.10;;
8478;SDS011;4276;49.354;6.804;2022-09-16T15:17:52;1.80;;;1.00;;
8478;SDS011;4276;49.354;6.804;2022-09-16T15:20:32;0.90;;;0.88;;
8478;SDS011;4276;49.354;6.804;2022-09-16T15:23:14;1.40;;;0.93;;
8478;SDS011;4276;49.354;6.804;2022-09-16T15:25:54;1.20;;;1.08;;
8478;SDS011;4276;49.354;6.804;2022-09-16T15:28:25;0.93;;;0.85;;
8478;SDS011;4276;49.354;6.804;2022-09-16T15:30:55;0.80;;;0.80;;
8478;SDS011;4276;49.354;6.804;2022-09-16T15:33:32;1.52;;;1.42;;
8478;SDS011;4276;49.354;6.804;2022-09-16T15:36:02;6.25;;;4.25;;
8478;SDS011;4276;49.354;6.804;2022-09-16T15:38:33;3.75;;;2.63;;
8478;SDS011;4276;49.354;6.804;2022-09-16T15:41:12;3.10;;;1.83;;
8478;SDS011;4276;49.354;6.804;2022-09-16T15:43:50;1.60;;;1.50;;
8478;SDS011;4276;49.354;6.804;2022-09-16T15:46:20;2.38;;;1.80;;
8478;SDS011;4276;49.354;6.804;2022-09-16T15:54:24;2.20;;;1.48;;
8478;SDS011;4276;49.354;6.804;2022-09-16T15:57:38;1.58;;;1.20;;
